Observation data for Saint Lawrence on 12/12/2019      Previous  Date       Current Mesonet Observations  Soil Data  Daily Summary Page  Observations in Plain Language
KST1 120600Z 17012KT 06/03 A3024 RMK A01 T00590033  RH  084%=      5-min Rain = 0
KST1 120605Z 17012KT 06/03 A3023 RMK A01 T00580032  RH  084%=      5-min Rain = 0
KST1 120610Z 17014KT 06/03 A3023 RMK A01 T00590032  RH  084%=      5-min Rain = 0
KST1 120615Z 17014G19KT 06/03 A3023 RMK A01 T00600030  RH  082%=      5-min Rain = 0
KST1 120620Z 17014KT 06/03 A3023 RMK A01 T00590028  RH  081%=      5-min Rain = 0
KST1 120625Z 17013KT 06/03 A3022 RMK A01 T00590027  RH  081%=      5-min Rain = 0
KST1 120630Z 17013KT 06/03 A3022 RMK A01 T00570026  RH  081%=      5-min Rain = 0
KST1 120635Z 17012KT 06/03 A3022 RMK A01 T00560026  RH  082%=      5-min Rain = 0
KST1 120640Z 17012KT 06/03 A3022 RMK A01 T00560025  RH  081%=      5-min Rain = 0
KST1 120645Z 17013KT 06/02 A3022 RMK A01 T00560024  RH  081%=      5-min Rain = 0
KST1 120650Z 17012KT 06/02 A3022 RMK A01 T00550023  RH  081%=      5-min Rain = 0
KST1 120655Z 17013KT 06/02 A3022 RMK A01 T00550022  RH  080%=      5-min Rain = 0
KST1 120700Z 17013KT 05/02 A3021 RMK A01 T00540020  RH  079%=      5-min Rain = 0
KST1 120705Z 16013KT 05/02 A3021 RMK A01 T00530019  RH  080%=      5-min Rain = 0
KST1 120710Z 17013KT 05/02 A3021 RMK A01 T00520019  RH  080%=      5-min Rain = 0
KST1 120715Z 16013KT 05/02 A302 RMK A01 T00520018  RH  080%=      5-min Rain = 0
KST1 120720Z 17013KT 05/02 A302 RMK A01 T00520017  RH  079%=      5-min Rain = 0
KST1 120725Z 17013KT 05/02 A302 RMK A01 T00520016  RH  079%=      5-min Rain = 0
KST1 120730Z 17012KT 05/02 A302 RMK A01 T00510015  RH  079%=      5-min Rain = 0
KST1 120735Z 17011KT 05/02 A302 RMK A01 T00500015  RH  079%=      5-min Rain = 0
KST1 120740Z 17012KT 05/01 A3021 RMK A01 T00500014  RH  079%=      5-min Rain = 0
KST1 120745Z 17011KT 05/01 A3021 RMK A01 T00490014  RH  079%=      5-min Rain = 0
KST1 120750Z 17011KT 05/01 A302 RMK A01 T00480013  RH  079%=      5-min Rain = 0
KST1 120755Z 17011KT 05/01 A302 RMK A01 T00480013  RH  079%=      5-min Rain = 0
KST1 120800Z 17011KT 05/01 A302 RMK A01 T00470012  RH  079%=      5-min Rain = 0
KST1 120805Z 17010KT 05/01 A302 RMK A01 T00470012  RH  079%=      5-min Rain = 0
KST1 120810Z 18011KT 05/01 A302 RMK A01 T00470011  RH  078%=      5-min Rain = 0
KST1 120815Z 18011KT 05/01 A3021 RMK A01 T00460010  RH  078%=      5-min Rain = 0
KST1 120820Z 18011KT 05/01 A302 RMK A01 T00470010  RH  078%=      5-min Rain = 0
KST1 120825Z 17012KT 05/01 A302 RMK A01 T00470009  RH  077%=      5-min Rain = 0
KST1 120830Z 18012KT 05/01 A302 RMK A01 T00470008  RH  077%=      5-min Rain = 0
KST1 120835Z 18012KT 05/01 A302 RMK A01 T00470008  RH  077%=      5-min Rain = 0
KST1 120840Z 18012KT 05/01 A302 RMK A01 T00460008  RH  077%=      5-min Rain = 0
KST1 120845Z 17013KT 05/01 A302 RMK A01 T00450008  RH  078%=      5-min Rain = 0
KST1 120850Z 17013KT 05/01 A3019 RMK A01 T00450008  RH  078%=      5-min Rain = 0
KST1 120855Z 17012KT 04/01 A302 RMK A01 T00440008  RH  078%=      5-min Rain = 0
KST1 120900Z 17012KT 04/01 A3019 RMK A01 T00440008  RH  078%=      5-min Rain = 0
KST1 120905Z 17012KT 04/01 A3019 RMK A01 T00430008  RH  079%=      5-min Rain = 0
KST1 120910Z 17012KT 04/01 A3019 RMK A01 T00430008  RH  079%=      5-min Rain = 0
KST1 120915Z 18010KT 04/01 A302 RMK A01 T00420007  RH  079%=      5-min Rain = 0
KST1 120920Z 18010KT 04/01 A302 RMK A01 T00410007  RH  079%=      5-min Rain = 0
KST1 120925Z 18010KT 04/01 A3019 RMK A01 T00400007  RH  080%=      5-min Rain = 0
KST1 120930Z 18009KT 04/01 A302 RMK A01 T00390008  RH  081%=      5-min Rain = 0
KST1 120935Z 18010KT 04/01 A3019 RMK A01 T00390008  RH  081%=      5-min Rain = 0
KST1 120940Z 18009KT 04/01 A3019 RMK A01 T00380007  RH  081%=      5-min Rain = 0
KST1 120945Z 18008KT 04/01 A302 RMK A01 T00380007  RH  081%=      5-min Rain = 0
KST1 120950Z 18007KT 04/01 A302 RMK A01 T00370007  RH  081%=      5-min Rain = 0
KST1 120955Z 18007KT 04/01 A302 RMK A01 T00360006  RH  082%=      5-min Rain = 0
KST1 121000Z 18007KT 04/01 A302 RMK A01 T00350006  RH  082%=      5-min Rain = 0
KST1 121005Z 18007KT 03/01 A3019 RMK A01 T00340006  RH  083%=      5-min Rain = 0
KST1 121010Z 18007KT 03/01 A3019 RMK A01 T00330006  RH  083%=      5-min Rain = 0
KST1 121015Z 19006KT 03/01 A3019 RMK A01 T00330006  RH  083%=      5-min Rain = 0
KST1 121020Z 18007KT 03/01 A3019 RMK A01 T00330006  RH  083%=      5-min Rain = 0
KST1 121025Z 18010KT 03/01 A3019 RMK A01 T00340006  RH  083%=      5-min Rain = 0
KST1 121030Z 18011KT 04/01 A3019 RMK A01 T00350006  RH  082%=      5-min Rain = 0
KST1 121035Z 18012KT 03/01 A3018 RMK A01 T00340005  RH  082%=      5-min Rain = 0
KST1 121040Z 18012KT 04/01 A3018 RMK A01 T00350005  RH  082%=      5-min Rain = 0
KST1 121045Z 18011KT 03/01 A3018 RMK A01 T00330005  RH  083%=      5-min Rain = 0
KST1 121050Z 18011KT 03/01 A3017 RMK A01 T00330005  RH  083%=      5-min Rain = 0
KST1 121055Z 18010KT 03/01 A3018 RMK A01 T00330006  RH  084%=      5-min Rain = 0
KST1 121100Z 18009KT 03/01 A3018 RMK A01 T00320006  RH  084%=      5-min Rain = 0
KST1 121105Z 18008KT 03/01 A3018 RMK A01 T00300006  RH  085%=      5-min Rain = 0
KST1 121110Z 18008KT 03/01 A3018 RMK A01 T00300006  RH  086%=      5-min Rain = 0
KST1 121115Z 18009KT 03/01 A3018 RMK A01 T00300007  RH  086%=      5-min Rain = 0
KST1 121120Z 18009G14KT 03/01 A3018 RMK A01 T00310008  RH  085%=      5-min Rain = 0
KST1 121125Z 18011KT 03/01 A3017 RMK A01 T00320008  RH  085%=      5-min Rain = 0
KST1 121130Z 19010KT 03/01 A3017 RMK A01 T00320008  RH  085%=      5-min Rain = 0
KST1 121135Z 18011KT 03/01 A3017 RMK A01 T00320008  RH  086%=      5-min Rain = 0
KST1 121140Z 18012KT 03/01 A3017 RMK A01 T00320010  RH  086%=      5-min Rain = 0
KST1 121145Z 18012KT 03/01 A3017 RMK A01 T00320010  RH  087%=      5-min Rain = 0
KST1 121150Z 18011KT 03/01 A3017 RMK A01 T00310010  RH  087%=      5-min Rain = 0
KST1 121155Z 18011KT 03/01 A3017 RMK A01 T00310011  RH  088%=      5-min Rain = 0
KST1 121200Z 18013KT 03/01 A3017 RMK A01 T00310012  RH  088%=      5-min Rain = 0
KST1 121205Z 18011G16KT 03/01 A3017 RMK A01 T00310012  RH  088%=      5-min Rain = 0
KST1 121210Z 18011KT 03/01 A3017 RMK A01 T00300012  RH  089%=      5-min Rain = 0
KST1 121215Z 18011KT 03/01 A3017 RMK A01 T00300012  RH  089%=      5-min Rain = 0
KST1 121220Z 18011KT 03/01 A3017 RMK A01 T00290012  RH  090%=      5-min Rain = 0
KST1 121225Z 18011KT 03/01 A3017 RMK A01 T00280012  RH  090%=      5-min Rain = 0
KST1 121230Z 18010KT 03/01 A3017 RMK A01 T00280012  RH  091%=      5-min Rain = 0
KST1 121235Z 18009KT 03/01 A3018 RMK A01 T00260012  RH  091%=      5-min Rain = 0
KST1 121240Z 18009KT 03/01 A3018 RMK A01 T00250012  RH  092%=      5-min Rain = 0
KST1 121245Z 18009KT 03/01 A3018 RMK A01 T00250012  RH  093%=      5-min Rain = 0
KST1 121250Z 18008KT 02/01 A3018 RMK A01 T00240013  RH  093%=      5-min Rain = 0
KST1 121255Z 17009KT 02/01 A3017 RMK A01 T00240013  RH  093%=      5-min Rain = 0
KST1 121300Z 17009KT 02/01 A3017 RMK A01 T00230012  RH  094%=      5-min Rain = 0
KST1 121305Z 17008KT 02/01 A3017 RMK A01 T00230012  RH  094%=      5-min Rain = 0
KST1 121310Z 17008KT 02/01 A3017 RMK A01 T00220012  RH  094%=      5-min Rain = 0
KST1 121315Z 17008KT 02/01 A3017 RMK A01 T00210012  RH  095%=      5-min Rain = 0
KST1 121320Z 17007KT 02/01 A3017 RMK A01 T00200011  RH  095%=      5-min Rain = 0
KST1 121325Z 17007KT 02/01 A3018 RMK A01 T00200012  RH  095%=      5-min Rain = 0
KST1 121330Z 18008KT 02/01 A3017 RMK A01 T00200011  RH  095%=      5-min Rain = 0
KST1 121335Z 18007KT 02/01 A3017 RMK A01 T00190012  RH  096%=      5-min Rain = 0
KST1 121340Z 18007KT 02/01 A3018 RMK A01 T00190012  RH  096%=      5-min Rain = 0
KST1 121345Z 18007KT 02/01 A3017 RMK A01 T00200012  RH  096%=      5-min Rain = 0
KST1 121350Z 18008KT 02/01 A3017 RMK A01 T00190012  RH  096%=      5-min Rain = 0
KST1 121355Z 18009KT 02/01 A3017 RMK A01 T00180012  RH  096%=      5-min Rain = 0
KST1 121400Z 18009KT 02/01 A3017 RMK A01 T00190012  RH  097%=      5-min Rain = 0
KST1 121405Z 18009KT 02/01 A3017 RMK A01 T00200013  RH  097%=      5-min Rain = 0
KST1 121410Z 17009KT 02/02 A3017 RMK A01 T00210015  RH  097%=      5-min Rain = 0
KST1 121415Z 18009KT 02/02 A3017 RMK A01 T00230016  RH  096%=      5-min Rain = 0
KST1 121420Z 18009KT 03/02 A3017 RMK A01 T00250018  RH  096%=      5-min Rain = 0
KST1 121425Z 18011KT 03/02 A3017 RMK A01 T00270019  RH  096%=      5-min Rain = 0
KST1 121430Z 18012KT 03/02 A3017 RMK A01 T00280020  RH  095%=      5-min Rain = 0
KST1 121435Z 18012KT 03/02 A3017 RMK A01 T00310021  RH  095%=      5-min Rain = 0
KST1 121440Z 18013G18KT 03/02 A3017 RMK A01 T00330023  RH  094%=      5-min Rain = 0
KST1 121445Z 19014G19KT 04/02 A3017 RMK A01 T00360024  RH  093%=      5-min Rain = 0
KST1 121450Z 19014G19KT 04/02 A3017 RMK A01 T00370024  RH  092%=      5-min Rain = 0
KST1 121455Z 19015G20KT 04/03 A3017 RMK A01 T00390025  RH  091%=      5-min Rain = 0
KST1 121500Z 19015KT 04/03 A3018 RMK A01 T00410025  RH  091%=      5-min Rain = 0
KST1 121505Z 19015G20KT 04/03 A3018 RMK A01 T00430026  RH  090%=      5-min Rain = 0
KST1 121510Z 18014KT 04/03 A3018 RMK A01 T00440027  RH  090%=      5-min Rain = 0
KST1 121515Z 19013KT 05/03 A3018 RMK A01 T00470029  RH  090%=      5-min Rain = 0
KST1 121520Z 19013KT 05/03 A3018 RMK A01 T00480030  RH  089%=      5-min Rain = 0
KST1 121525Z 19014KT 05/03 A3018 RMK A01 T00490031  RH  089%=      5-min Rain = 0
KST1 121530Z 19013KT 05/03 A3018 RMK A01 T00510032  RH  089%=      5-min Rain = 0
KST1 121535Z 19013KT 05/03 A3018 RMK A01 T00530034  RH  089%=      5-min Rain = 0
KST1 121540Z 19014KT 05/04 A3018 RMK A01 T00540035  RH  088%=      5-min Rain = 0
KST1 121545Z 19011KT 06/04 A3018 RMK A01 T00570037  RH  088%=      5-min Rain = 0
KST1 121550Z 18012KT 06/04 A3018 RMK A01 T00610041  RH  088%=      5-min Rain = 0
KST1 121555Z 19011KT 06/04 A3018 RMK A01 T00620040  RH  087%=      5-min Rain = 0
KST1 121600Z 19012KT 06/04 A3018 RMK A01 T00640040  RH  086%=      5-min Rain = 0
KST1 121605Z 19013KT 07/04 A3018 RMK A01 T00660041  RH  085%=      5-min Rain = 0
KST1 121610Z 20012KT 07/04 A3018 RMK A01 T00670041  RH  085%=      5-min Rain = 0
KST1 121615Z 19012KT 07/04 A3018 RMK A01 T00700044  RH  084%=      5-min Rain = 0
KST1 121620Z 20011KT 07/05 A3018 RMK A01 T00730046  RH  084%=      5-min Rain = 0
KST1 121625Z 19012KT 07/05 A3018 RMK A01 T00730045  RH  083%=      5-min Rain = 0
KST1 121630Z 19011KT 08/05 A3018 RMK A01 T00760048  RH  083%=      5-min Rain = 0
KST1 121635Z 19010KT 08/05 A3018 RMK A01 T00770048  RH  083%=      5-min Rain = 0
KST1 121640Z 20010KT 08/05 A3018 RMK A01 T00800049  RH  082%=      5-min Rain = 0
KST1 121645Z 19010KT 08/05 A3018 RMK A01 T00820051  RH  082%=      5-min Rain = 0
KST1 121650Z 19010KT 08/05 A3018 RMK A01 T00840051  RH  081%=      5-min Rain = 0
KST1 121655Z 20009KT 09/05 A3018 RMK A01 T00870054  RH  081%=      5-min Rain = 0
KST1 121700Z 20010KT 09/05 A3018 RMK A01 T00880053  RH  080%=      5-min Rain = 0
KST1 121705Z 20008KT 09/06 A3018 RMK A01 T00920056  RH  080%=      5-min Rain = 0
KST1 121710Z 19009KT 09/06 A3017 RMK A01 T00940057  RH  079%=      5-min Rain = 0
KST1 121715Z 20008KT 10/06 A3017 RMK A01 T00950056  RH  078%=      5-min Rain = 0
KST1 121720Z 19009KT 10/06 A3017 RMK A01 T00970057  RH  077%=      5-min Rain = 0
KST1 121725Z 21009KT 10/06 A3017 RMK A01 T01000060  RH  077%=      5-min Rain = 0
KST1 121730Z 21008KT 10/06 A3017 RMK A01 T01020061  RH  077%=      5-min Rain = 0
KST1 121735Z 21008KT 11/06 A3017 RMK A01 T01050063  RH  076%=      5-min Rain = 0
KST1 121740Z 21008KT 11/06 A3016 RMK A01 T01060062  RH  075%=      5-min Rain = 0
KST1 121745Z 21008G13KT 11/07 A3016 RMK A01 T01090067  RH  076%=      5-min Rain = 0
KST1 121750Z 21009KT 11/07 A3016 RMK A01 T01090066  RH  076%=      5-min Rain = 0
KST1 121755Z 20008KT 11/07 A3015 RMK A01 T01110065  RH  075%=      5-min Rain = 0
KST1 121800Z 21010KT 11/07 A3015 RMK A01 T01120065  RH  074%=      5-min Rain = 0
KST1 121805Z 21008KT 12/07 A3014 RMK A01 T01150069  RH  074%=      5-min Rain = 0
KST1 121810Z 21010KT 12/07 A3014 RMK A01 T01170071  RH  074%=      5-min Rain = 0
KST1 121815Z 22009KT 12/07 A3014 RMK A01 T01190072  RH  074%=      5-min Rain = 0
KST1 121820Z 22010KT 12/07 A3014 RMK A01 T01200072  RH  074%=      5-min Rain = 0
KST1 121825Z 21010KT 12/07 A3013 RMK A01 T01190070  RH  073%=      5-min Rain = 0
KST1 121830Z 21008KT 12/07 A3013 RMK A01 T01220072  RH  073%=      5-min Rain = 0
KST1 121835Z 22008KT 12/07 A3013 RMK A01 T01240072  RH  072%=      5-min Rain = 0
KST1 121840Z 24009KT 13/08 A3013 RMK A01 T01260075  RH  072%=      5-min Rain = 0
KST1 121845Z 24010KT 13/07 A3012 RMK A01 T01250073  RH  071%=      5-min Rain = 0
KST1 121850Z 24010KT 13/07 A3012 RMK A01 T01250071  RH  071%=      5-min Rain = 0
KST1 121855Z 25009KT 13/07 A3012 RMK A01 T01270074  RH  071%=      5-min Rain = 0
KST1 121900Z 25010KT 13/08 A3011 RMK A01 T01310078  RH  071%=      5-min Rain = 0
KST1 121905Z 24008G14KT 13/08 A3011 RMK A01 T01310075  RH  070%=      5-min Rain = 0
KST1 121910Z 23009G14KT 13/07 A3011 RMK A01 T01320074  RH  069%=      5-min Rain = 0
KST1 121915Z 26009G14KT 14/08 A3011 RMK A01 T01350076  RH  068%=      5-min Rain = 0
KST1 121920Z 24008KT 14/08 A3011 RMK A01 T01360077  RH  068%=      5-min Rain = 0
KST1 121925Z 27009KT 14/07 A3011 RMK A01 T01370072  RH  066%=      5-min Rain = 0
KST1 121930Z 25009KT 14/08 A301 RMK A01 T01390077  RH  067%=      5-min Rain = 0
KST1 121935Z 26009KT 14/08 A301 RMK A01 T01380076  RH  067%=      5-min Rain = 0
KST1 121940Z 27009KT 14/08 A301 RMK A01 T01380076  RH  067%=      5-min Rain = 0
KST1 121945Z 25010KT 14/08 A301 RMK A01 T01380077  RH  068%=      5-min Rain = 0
KST1 121950Z 25009G14KT 14/08 A3009 RMK A01 T01410081  RH  068%=      5-min Rain = 0
KST1 122000Z 25008KT 14/08 A3009 RMK A01 T01410076  RH  066%=      5-min Rain = 0
KST1 122005Z 24009KT 14/08 A3008 RMK A01 T01420075  RH  065%=      5-min Rain = 0
KST1 122010Z 25008KT 15/08 A3008 RMK A01 T01450079  RH  065%=      5-min Rain = 0
KST1 122015Z 23006KT 15/08 A3008 RMK A01 T01460077  RH  064%=      5-min Rain = 0
KST1 122020Z 25008KT 15/08 A3007 RMK A01 T01480078  RH  064%=      5-min Rain = 0
KST1 122025Z 24008KT 15/08 A3007 RMK A01 T01500081  RH  064%=      5-min Rain = 0
KST1 122030Z 24009KT 15/08 A3007 RMK A01 T01500078  RH  063%=      5-min Rain = 0
KST1 122035Z 24008KT 15/08 A3006 RMK A01 T01520082  RH  064%=      5-min Rain = 0
KST1 122040Z 22008KT 15/08 A3006 RMK A01 T01530080  RH  063%=      5-min Rain = 0
KST1 122045Z 23009KT 15/08 A3006 RMK A01 T01530076  RH  061%=      5-min Rain = 0
KST1 122050Z 23009KT 15/07 A3006 RMK A01 T01520074  RH  060%=      5-min Rain = 0
KST1 122055Z 24008G14KT 15/08 A3006 RMK A01 T01530077  RH  061%=      5-min Rain = 0
KST1 122100Z 25009KT 16/08 A3006 RMK A01 T01560076  RH  060%=      5-min Rain = 0
KST1 122105Z 26010KT 16/07 A3006 RMK A01 T01580071  RH  057%=      5-min Rain = 0
KST1 122110Z 24009KT 16/07 A3006 RMK A01 T01570072  RH  058%=      5-min Rain = 0
KST1 122115Z 25011KT 15/07 A3006 RMK A01 T01530071  RH  059%=      5-min Rain = 0
KST1 122120Z 24010KT 16/07 A3006 RMK A01 T01550071  RH  058%=      5-min Rain = 0
KST1 122125Z 25010KT 16/07 A3006 RMK A01 T01590070  RH  056%=      5-min Rain = 0
KST1 122130Z 24009KT 16/07 A3006 RMK A01 T01570070  RH  057%=      5-min Rain = 0
KST1 122135Z 26009KT 16/07 A3006 RMK A01 T01590069  RH  056%=      5-min Rain = 0
KST1 122140Z 25009KT 16/07 A3006 RMK A01 T01600070  RH  056%=      5-min Rain = 0
KST1 122145Z 24010KT 16/07 A3006 RMK A01 T01600070  RH  056%=      5-min Rain = 0
KST1 122150Z 25009KT 16/07 A3006 RMK A01 T01590070  RH  056%=      5-min Rain = 0
KST1 122155Z 24010KT 16/07 A3006 RMK A01 T01580071  RH  057%=      5-min Rain = 0
KST1 122200Z 25010KT 16/07 A3006 RMK A01 T01560068  RH  057%=      5-min Rain = 0
KST1 122205Z 25010KT 16/07 A3006 RMK A01 T01550066  RH  056%=      5-min Rain = 0
KST1 122210Z 25010KT 16/07 A3006 RMK A01 T01550068  RH  057%=      5-min Rain = 0
KST1 122215Z 25009KT 16/07 A3006 RMK A01 T01550066  RH  056%=      5-min Rain = 0
KST1 122220Z 25009KT 15/07 A3005 RMK A01 T01540067  RH  057%=      5-min Rain = 0
KST1 122225Z 24008KT 15/07 A3005 RMK A01 T01520072  RH  059%=      5-min Rain = 0
KST1 122230Z 24009KT 15/07 A3005 RMK A01 T01540067  RH  057%=      5-min Rain = 0
KST1 122235Z 24009KT 16/07 A3005 RMK A01 T01550067  RH  057%=      5-min Rain = 0
KST1 122240Z 24008KT 16/07 A3005 RMK A01 T01570068  RH  056%=      5-min Rain = 0
KST1 122245Z 23007KT 16/07 A3005 RMK A01 T01590070  RH  057%=      5-min Rain = 0
KST1 122250Z 22009KT 16/07 A3005 RMK A01 T01580069  RH  056%=      5-min Rain = 0
KST1 122255Z 23010KT 16/07 A3005 RMK A01 T01580067  RH  056%=      5-min Rain = 0
KST1 122300Z 23009KT 16/06 A3005 RMK A01 T01560064  RH  055%=      5-min Rain = 0
KST1 122305Z 23008KT 16/07 A3005 RMK A01 T01550065  RH  056%=      5-min Rain = 0
KST1 122310Z 23008KT 15/07 A3004 RMK A01 T01510066  RH  057%=      5-min Rain = 0
KST1 122315Z 22008KT 15/07 A3005 RMK A01 T01470066  RH  059%=      5-min Rain = 0
KST1 122320Z 22007KT 14/07 A3004 RMK A01 T01440067  RH  061%=      5-min Rain = 0
KST1 122325Z 22007KT 14/07 A3004 RMK A01 T01420069  RH  062%=      5-min Rain = 0
KST1 122330Z 22006KT 14/07 A3004 RMK A01 T01410070  RH  063%=      5-min Rain = 0
KST1 122335Z 21006KT 14/07 A3004 RMK A01 T01400070  RH  064%=      5-min Rain = 0
KST1 122340Z 21006KT 14/07 A3004 RMK A01 T01400066  RH  062%=      5-min Rain = 0
KST1 122345Z 20006KT 14/07 A3004 RMK A01 T01390065  RH  062%=      5-min Rain = 0
KST1 122350Z 20007KT 14/07 A3004 RMK A01 T01390065  RH  062%=      5-min Rain = 0
KST1 122355Z 20007KT 14/07 A3004 RMK A01 T01360067  RH  064%=      5-min Rain = 0
KST1 130000Z 20006KT 13/07 A3004 RMK A01 T01340066  RH  064%=      5-min Rain = 0
KST1 130005Z 21006KT 13/06 A3004 RMK A01 T01340064  RH  063%=      5-min Rain = 0
KST1 130010Z 21007KT 13/06 A3004 RMK A01 T01310064  RH  065%=      5-min Rain = 0
KST1 130015Z 21008KT 13/06 A3004 RMK A01 T01300063  RH  065%=      5-min Rain = 0
KST1 130020Z 21007KT 13/06 A3004 RMK A01 T01280063  RH  066%=      5-min Rain = 0
KST1 130025Z 21007KT 13/06 A3004 RMK A01 T01250063  RH  067%=      5-min Rain = 0
KST1 130030Z 21007KT 12/06 A3004 RMK A01 T01220062  RH  068%=      5-min Rain = 0
KST1 130035Z 21007KT 12/06 A3004 RMK A01 T01220062  RH  067%=      5-min Rain = 0
KST1 130040Z 21007KT 12/06 A3004 RMK A01 T01220061  RH  067%=      5-min Rain = 0
KST1 130045Z 20007KT 12/06 A3004 RMK A01 T01210060  RH  067%=      5-min Rain = 0
KST1 130050Z 20008KT 12/06 A3004 RMK A01 T01200060  RH  067%=      5-min Rain = 0
KST1 130055Z 20008KT 12/06 A3004 RMK A01 T01180059  RH  068%=      5-min Rain = 0
KST1 130100Z 20008KT 12/06 A3004 RMK A01 T01160059  RH  069%=      5-min Rain = 0
KST1 130105Z 20008KT 12/06 A3004 RMK A01 T01160059  RH  069%=      5-min Rain = 0
KST1 130110Z 20008KT 12/06 A3004 RMK A01 T01170059  RH  068%=      5-min Rain = 0
KST1 130115Z 20008KT 12/06 A3004 RMK A01 T01160058  RH  069%=      5-min Rain = 0
KST1 130120Z 20007KT 11/06 A3004 RMK A01 T01140058  RH  069%=      5-min Rain = 0
KST1 130125Z 20008KT 11/06 A3004 RMK A01 T01130058  RH  070%=      5-min Rain = 0
KST1 130130Z 20007KT 11/06 A3004 RMK A01 T01110058  RH  071%=      5-min Rain = 0
KST1 130135Z 20007KT 11/06 A3004 RMK A01 T01110058  RH  071%=      5-min Rain = 0
KST1 130140Z 19007KT 11/06 A3004 RMK A01 T01080057  RH  072%=      5-min Rain = 0
KST1 130145Z 19007KT 10/06 A3004 RMK A01 T01000056  RH  075%=      5-min Rain = 0
KST1 130150Z 20008KT 10/06 A3004 RMK A01 T01020060  RH  076%=      5-min Rain = 0
KST1 130155Z 20007KT 11/06 A3005 RMK A01 T01050059  RH  074%=      5-min Rain = 0
KST1 130200Z 19007KT 10/06 A3005 RMK A01 T01040059  RH  075%=      5-min Rain = 0
KST1 130205Z 19008KT 10/06 A3005 RMK A01 T01020059  RH  076%=      5-min Rain = 0
KST1 130210Z 19008KT 10/06 A3005 RMK A01 T01000059  RH  077%=      5-min Rain = 0
KST1 130215Z 19008KT 10/06 A3005 RMK A01 T00970060  RH  079%=      5-min Rain = 0
KST1 130220Z 19008KT 10/06 A3005 RMK A01 T00970060  RH  079%=      5-min Rain = 0
KST1 130225Z 19007KT 09/06 A3004 RMK A01 T00930060  RH  081%=      5-min Rain = 0
KST1 130230Z 19007KT 09/06 A3005 RMK A01 T00910060  RH  082%=      5-min Rain = 0
KST1 130235Z 19007KT 09/06 A3004 RMK A01 T00880059  RH  083%=      5-min Rain = 0
KST1 130240Z 19007KT 08/06 A3005 RMK A01 T00840058  RH  085%=      5-min Rain = 0
KST1 130245Z 18007KT 08/06 A3004 RMK A01 T00810058  RH  087%=      5-min Rain = 0
KST1 130250Z 19007KT 08/06 A3005 RMK A01 T00820062  RH  088%=      5-min Rain = 0
KST1 130255Z 19007KT 08/06 A3005 RMK A01 T00830064  RH  089%=      5-min Rain = 0
KST1 130300Z 19008KT 09/07 A3005 RMK A01 T00850065  RH  089%=      5-min Rain = 0
KST1 130305Z 19007KT 08/06 A3004 RMK A01 T00830063  RH  088%=      5-min Rain = 0
KST1 130310Z 19007KT 08/06 A3004 RMK A01 T00820063  RH  089%=      5-min Rain = 0
KST1 130315Z 18007KT 08/06 A3004 RMK A01 T00800062  RH  090%=      5-min Rain = 0
KST1 130320Z 19007KT 08/06 A3004 RMK A01 T00790062  RH  091%=      5-min Rain = 0
KST1 130325Z 19008KT 08/06 A3004 RMK A01 T00790064  RH  091%=      5-min Rain = 0
KST1 130330Z 19008KT 08/07 A3004 RMK A01 T00810065  RH  091%=      5-min Rain = 0
KST1 130335Z 19008KT 08/07 A3004 RMK A01 T00840067  RH  091%=      5-min Rain = 0
KST1 130340Z 19008KT 08/07 A3003 RMK A01 T00830065  RH  090%=      5-min Rain = 0
KST1 130345Z 19008KT 08/06 A3004 RMK A01 T00810063  RH  090%=      5-min Rain = 0
KST1 130350Z 19009KT 08/07 A3003 RMK A01 T00830066  RH  091%=      5-min Rain = 0
KST1 130355Z 20009KT 08/07 A3004 RMK A01 T00840066  RH  090%=      5-min Rain = 0
KST1 130400Z 19009KT 08/07 A3003 RMK A01 T00840066  RH  090%=      5-min Rain = 0
KST1 130405Z 20009KT 08/07 A3003 RMK A01 T00840066  RH  090%=      5-min Rain = 0
KST1 130410Z 19009KT 08/07 A3003 RMK A01 T00840066  RH  090%=      5-min Rain = 0
KST1 130415Z 19008KT 08/07 A3003 RMK A01 T00840066  RH  090%=      5-min Rain = 0
KST1 130420Z 19009KT 08/07 A3003 RMK A01 T00830065  RH  090%=      5-min Rain = 0
KST1 130425Z 19008KT 08/07 A3003 RMK A01 T00830065  RH  090%=      5-min Rain = 0
KST1 130430Z 19008KT 08/06 A3003 RMK A01 T00800063  RH  090%=      5-min Rain = 0
KST1 130435Z 19007KT 08/06 A3003 RMK A01 T00790063  RH  091%=      5-min Rain = 0
KST1 130440Z 19007KT 08/06 A3003 RMK A01 T00790064  RH  092%=      5-min Rain = 0
KST1 130445Z 20007KT 08/07 A3003 RMK A01 T00800065  RH  091%=      5-min Rain = 0
KST1 130450Z 20008KT 08/07 A3003 RMK A01 T00810065  RH  091%=      5-min Rain = 0
KST1 130455Z 19007KT 08/06 A3003 RMK A01 T00800064  RH  091%=      5-min Rain = 0
KST1 130500Z 20006KT 08/06 A3003 RMK A01 T00790063  RH  091%=      5-min Rain = 0
KST1 130505Z 20006KT 08/06 A3004 RMK A01 T00760061  RH  091%=      5-min Rain = 0
KST1 130510Z 21006KT 08/06 A3004 RMK A01 T00750060  RH  092%=      5-min Rain = 0
KST1 130515Z 22007KT 07/06 A3004 RMK A01 T00740061  RH  092%=      5-min Rain = 0
KST1 130520Z 21007KT 07/06 A3003 RMK A01 T00720059  RH  093%=      5-min Rain = 0
KST1 130525Z 21008KT 07/06 A3003 RMK A01 T00700058  RH  094%=      5-min Rain = 0
KST1 130530Z 21007KT 07/06 A3003 RMK A01 T00700059  RH  094%=      5-min Rain = 0
KST1 130535Z 21008KT 07/06 A3003 RMK A01 T00690059  RH  095%=      5-min Rain = 0
KST1 130540Z 21007KT 07/06 A3003 RMK A01 T00680059  RH  095%=      5-min Rain = 0
KST1 130545Z 20007KT 07/06 A3003 RMK A01 T00700062  RH  096%=      5-min Rain = 0
KST1 130550Z 21006KT 07/06 A3003 RMK A01 T00710062  RH  095%=      5-min Rain = 0
KST1 130555Z 21007KT 07/06 A3003 RMK A01 T00690060  RH  095%=      5-min Rain = 0

Page generated in 0.0091 seconds.